QFA541 YBBN-YSSY
Flight info
| Callsign | QFA541 |
|---|---|
| Flight time | 1h 13m |
| Altitude | 40000 |
| Route | BN H91 IGDAM H652 TESAT |
| Aircraft | A333/H-SADE1E2E3GHIJ3J5M1P2RWXY/LB2D1 |
Departure
| Time | 2026-04-23 06:00 |
|---|---|
| Airport | Brisbane International Airport (YBBN) |
Arrival
| Time | 2026-04-23 07:13 |
|---|---|
| Airport | Sydney Kingsford Smith International Airport (YSSY) |
| Time | Latitude | Longitude | Altitude | Speed | Heading |
|---|---|---|---|---|---|
| 2026-04-23 05:35 | -27.38479 | 153.12144 | 30 ft | 0 kts | 296° |
| 2026-04-23 05:50 | -27.38480 | 153.12148 | 31 ft | 2 kts | 296° |
| 2026-04-23 05:50 | -27.38487 | 153.12163 | 31 ft | 2 kts | 293° |
| 2026-04-23 05:50 | -27.38491 | 153.12180 | 31 ft | 2 kts | 275° |
| 2026-04-23 05:50 | -27.38491 | 153.12196 | 31 ft | 2 kts | 261° |
| 2026-04-23 05:51 | -27.38487 | 153.12213 | 31 ft | 2 kts | 246° |
| 2026-04-23 05:51 | -27.38480 | 153.12228 | 31 ft | 2 kts | 232° |
| 2026-04-23 05:51 | -27.38470 | 153.12241 | 31 ft | 2 kts | 221° |
| 2026-04-23 05:51 | -27.38458 | 153.12251 | 31 ft | 2 kts | 224° |
| 2026-04-23 05:52 | -27.38448 | 153.12262 | 31 ft | 2 kts | 224° |
| 2026-04-23 05:52 | -27.38438 | 153.12273 | 31 ft | 0 kts | 224° |
| 2026-04-23 05:52 | -27.38438 | 153.12274 | 31 ft | 0 kts | 224° |
| 2026-04-23 05:54 | -27.38439 | 153.12273 | 31 ft | 0 kts | 224° |
| 2026-04-23 05:55 | -27.38445 | 153.12267 | 31 ft | 2 kts | 216° |
| 2026-04-23 05:55 | -27.38466 | 153.12262 | 31 ft | 3 kts | 176° |
| 2026-04-23 05:55 | -27.38494 | 153.12283 | 31 ft | 6 kts | 128° |
| 2026-04-23 05:55 | -27.38522 | 153.12328 | 31 ft | 7 kts | 124° |
| 2026-04-23 05:56 | -27.38548 | 153.12387 | 31 ft | 8 kts | 106° |
| 2026-04-23 05:56 | -27.38529 | 153.12451 | 31 ft | 9 kts | 44° |
| 2026-04-23 05:56 | -27.38467 | 153.12494 | 31 ft | 10 kts | 28° |
| 2026-04-23 05:56 | -27.38396 | 153.12535 | 31 ft | 11 kts | 27° |
| 2026-04-23 05:57 | -27.38320 | 153.12578 | 31 ft | 12 kts | 26° |
| 2026-04-23 05:57 | -27.38238 | 153.12624 | 30 ft | 13 kts | 27° |
| 2026-04-23 05:57 | -27.38153 | 153.12674 | 31 ft | 14 kts | 28° |
| 2026-04-23 05:57 | -27.38063 | 153.12724 | 31 ft | 14 kts | 26° |
| 2026-04-23 05:58 | -27.38000 | 153.12797 | 31 ft | 13 kts | 85° |
| 2026-04-23 05:58 | -27.38029 | 153.12898 | 31 ft | 14 kts | 114° |
| 2026-04-23 05:58 | -27.38074 | 153.12997 | 31 ft | 13 kts | 127° |
| 2026-04-23 05:58 | -27.38162 | 153.13026 | 30 ft | 14 kts | 193° |
| 2026-04-23 05:59 | -27.38263 | 153.12976 | 30 ft | 23 kts | 205° |
| 2026-04-23 05:59 | -27.38622 | 153.12775 | 31 ft | 91 kts | 207° |
| 2026-04-23 05:59 | -27.39373 | 153.12338 | 31 ft | 148 kts | 206° |
| 2026-04-23 05:59 | -27.40392 | 153.11763 | 327 ft | 169 kts | 201° |
| 2026-04-23 06:00 | -27.41411 | 153.11211 | 1040 ft | 162 kts | 202° |
| 2026-04-23 06:00 | -27.42398 | 153.10696 | 1750 ft | 153 kts | 186° |
| 2026-04-23 06:00 | -27.43443 | 153.10763 | 2205 ft | 158 kts | 151° |
| 2026-04-23 06:00 | -27.44400 | 153.11519 | 2557 ft | 177 kts | 143° |
| 2026-04-23 06:01 | -27.45464 | 153.12350 | 2951 ft | 196 kts | 148° |
| 2026-04-23 06:01 | -27.46666 | 153.13161 | 3401 ft | 212 kts | 150° |
| 2026-04-23 06:01 | -27.47996 | 153.13972 | 4108 ft | 218 kts | 152° |
| 2026-04-23 06:01 | -27.49379 | 153.14644 | 4862 ft | 221 kts | 167° |
| 2026-04-23 06:02 | -27.50926 | 153.14679 | 5489 ft | 231 kts | 187° |
| 2026-04-23 06:02 | -27.52563 | 153.14302 | 5927 ft | 249 kts | 190° |
| 2026-04-23 06:02 | -27.54286 | 153.13863 | 6452 ft | 262 kts | 191° |
| 2026-04-23 06:02 | -27.56082 | 153.13319 | 7190 ft | 267 kts | 195° |
| 2026-04-23 06:03 | -27.57835 | 153.12648 | 7946 ft | 270 kts | 197° |
| 2026-04-23 06:03 | -27.59620 | 153.11940 | 8683 ft | 274 kts | 197° |
| 2026-04-23 06:03 | -27.61432 | 153.11229 | 9400 ft | 277 kts | 195° |
| 2026-04-23 06:03 | -27.63289 | 153.10588 | 10112 ft | 281 kts | 194° |
| 2026-04-23 06:04 | -27.65191 | 153.09953 | 10631 ft | 292 kts | 193° |
| 2026-04-23 06:04 | -27.67214 | 153.09283 | 10967 ft | 310 kts | 194° |
| 2026-04-23 06:04 | -27.69318 | 153.08585 | 11474 ft | 321 kts | 194° |
| 2026-04-23 06:04 | -27.71461 | 153.07867 | 12205 ft | 325 kts | 194° |
| 2026-04-23 06:05 | -27.73634 | 153.07140 | 12976 ft | 327 kts | 194° |
| 2026-04-23 06:05 | -27.75841 | 153.06401 | 13711 ft | 330 kts | 194° |
| 2026-04-23 06:05 | -27.78021 | 153.05672 | 14440 ft | 333 kts | 194° |
| 2026-04-23 06:05 | -27.80269 | 153.04919 | 15172 ft | 335 kts | 194° |
| 2026-04-23 06:06 | -27.82470 | 153.04102 | 15870 ft | 339 kts | 198° |
| 2026-04-23 06:06 | -27.84707 | 153.03142 | 16603 ft | 342 kts | 199° |
| 2026-04-23 06:06 | -27.86904 | 153.02181 | 17322 ft | 344 kts | 199° |
| 2026-04-23 06:06 | -27.89148 | 153.01196 | 18024 ft | 347 kts | 199° |
| 2026-04-23 06:07 | -27.91441 | 153.00191 | 18689 ft | 351 kts | 200° |
| 2026-04-23 06:07 | -27.93714 | 152.99194 | 19365 ft | 354 kts | 200° |
| 2026-04-23 06:07 | -27.96007 | 152.98189 | 20039 ft | 357 kts | 200° |
| 2026-04-23 06:07 | -27.98331 | 152.97170 | 20688 ft | 360 kts | 200° |
| 2026-04-23 06:08 | -28.00687 | 152.96137 | 21289 ft | 363 kts | 200° |
| 2026-04-23 06:08 | -28.03056 | 152.95097 | 21872 ft | 367 kts | 200° |
| 2026-04-23 06:08 | -28.05427 | 152.94055 | 22463 ft | 370 kts | 201° |
| 2026-04-23 06:08 | -28.07850 | 152.92992 | 23040 ft | 373 kts | 201° |
| 2026-04-23 06:09 | -28.10272 | 152.91923 | 23606 ft | 375 kts | 201° |
| 2026-04-23 06:09 | -28.12731 | 152.90832 | 24153 ft | 379 kts | 201° |
| 2026-04-23 06:09 | -28.15180 | 152.89741 | 24660 ft | 382 kts | 201° |
| 2026-04-23 06:09 | -28.17648 | 152.88644 | 25164 ft | 385 kts | 201° |
| 2026-04-23 06:10 | -28.20158 | 152.87527 | 25657 ft | 388 kts | 202° |
| 2026-04-23 06:10 | -28.22690 | 152.86400 | 26121 ft | 391 kts | 202° |
| 2026-04-23 06:10 | -28.25245 | 152.85261 | 26569 ft | 395 kts | 202° |
| 2026-04-23 06:10 | -28.27818 | 152.84116 | 27014 ft | 398 kts | 202° |
| 2026-04-23 06:11 | -28.30410 | 152.82960 | 27461 ft | 400 kts | 202° |
| 2026-04-23 06:11 | -28.33006 | 152.81804 | 27877 ft | 403 kts | 202° |
| 2026-04-23 06:11 | -28.35618 | 152.80638 | 28285 ft | 406 kts | 202° |
| 2026-04-23 06:11 | -28.36470 | 152.80257 | 28406 ft | 408 kts | 202° |
| 2026-04-23 06:12 | -28.38053 | 152.79550 | 28624 ft | 410 kts | 202° |
| 2026-04-23 06:12 | -28.39943 | 152.78706 | 28886 ft | 412 kts | 202° |
| 2026-04-23 06:12 | -28.43959 | 152.76914 | 29474 ft | 416 kts | 202° |
| 2026-04-23 06:13 | -28.46117 | 152.75948 | 29775 ft | 418 kts | 202° |
| 2026-04-23 06:13 | -28.48146 | 152.75041 | 30051 ft | 420 kts | 202° |
| 2026-04-23 06:13 | -28.50907 | 152.73805 | 30431 ft | 422 kts | 202° |
| 2026-04-23 06:13 | -28.53637 | 152.72583 | 30783 ft | 425 kts | 203° |
| 2026-04-23 06:14 | -28.56379 | 152.71356 | 31137 ft | 427 kts | 203° |
| 2026-04-23 06:14 | -28.59156 | 152.70111 | 31477 ft | 430 kts | 203° |
| 2026-04-23 06:14 | -28.61950 | 152.68857 | 31824 ft | 432 kts | 203° |
| 2026-04-23 06:14 | -28.64752 | 152.67601 | 32162 ft | 434 kts | 203° |
| 2026-04-23 06:15 | -28.67582 | 152.66330 | 32477 ft | 437 kts | 204° |
| 2026-04-23 06:15 | -28.70417 | 152.65056 | 32786 ft | 440 kts | 203° |
| 2026-04-23 06:15 | -28.73282 | 152.63768 | 33095 ft | 442 kts | 204° |
| 2026-04-23 06:15 | -28.76117 | 152.62494 | 33397 ft | 444 kts | 204° |
| 2026-04-23 06:16 | -28.79020 | 152.61188 | 33803 ft | 444 kts | 204° |
| 2026-04-23 06:16 | -28.81879 | 152.59900 | 34257 ft | 442 kts | 204° |
| 2026-04-23 06:16 | -28.84708 | 152.58537 | 34610 ft | 440 kts | 207° |
| 2026-04-23 06:16 | -28.87450 | 152.57022 | 34921 ft | 439 kts | 209° |
| 2026-04-23 06:17 | -28.90154 | 152.55431 | 35218 ft | 438 kts | 210° |
| 2026-04-23 06:17 | -28.92852 | 152.53825 | 35511 ft | 438 kts | 210° |
| 2026-04-23 06:17 | -28.95534 | 152.52228 | 35780 ft | 438 kts | 210° |
| 2026-04-23 06:17 | -28.98257 | 152.50603 | 36056 ft | 437 kts | 210° |
| 2026-04-23 06:18 | -29.00946 | 152.48999 | 36379 ft | 437 kts | 210° |
| 2026-04-23 06:18 | -29.03608 | 152.47411 | 36721 ft | 437 kts | 210° |
| 2026-04-23 06:18 | -29.06314 | 152.45798 | 37065 ft | 436 kts | 210° |
| 2026-04-23 06:18 | -29.08508 | 152.44488 | 37330 ft | 436 kts | 210° |
| 2026-04-23 06:19 | -29.11093 | 152.42946 | 37644 ft | 436 kts | 210° |
| 2026-04-23 06:19 | -29.13791 | 152.41334 | 37960 ft | 435 kts | 210° |
| 2026-04-23 06:19 | -29.16491 | 152.39720 | 38275 ft | 435 kts | 210° |
| 2026-04-23 06:19 | -29.19187 | 152.38109 | 38570 ft | 435 kts | 210° |
| 2026-04-23 06:20 | -29.20696 | 152.37205 | 38690 ft | 435 kts | 210° |
| 2026-04-23 06:20 | -29.21686 | 152.36614 | 38758 ft | 435 kts | 210° |
| 2026-04-23 06:20 | -29.24115 | 152.35159 | 38904 ft | 437 kts | 210° |
| 2026-04-23 06:21 | -29.28251 | 152.32681 | 39156 ft | 439 kts | 210° |
| 2026-04-23 06:21 | -29.31779 | 152.30566 | 39385 ft | 441 kts | 210° |
| 2026-04-23 06:22 | -29.35542 | 152.28310 | 39637 ft | 442 kts | 210° |
| 2026-04-23 06:22 | -29.38277 | 152.26668 | 39826 ft | 443 kts | 210° |
| 2026-04-23 06:22 | -29.39827 | 152.25735 | 39936 ft | 443 kts | 210° |
| 2026-04-23 06:23 | -29.42325 | 152.24234 | 40097 ft | 443 kts | 210° |
| 2026-04-23 06:23 | -29.44872 | 152.22704 | 40254 ft | 444 kts | 210° |
| 2026-04-23 06:23 | -29.48312 | 152.20633 | 40306 ft | 445 kts | 210° |
| 2026-04-23 06:24 | -29.53767 | 152.17348 | 40314 ft | 444 kts | 210° |
| 2026-04-23 06:24 | -29.59242 | 152.14047 | 40315 ft | 444 kts | 210° |
| 2026-04-23 06:25 | -29.64723 | 152.10770 | 40319 ft | 444 kts | 208° |
| 2026-04-23 06:25 | -29.70420 | 152.07971 | 40324 ft | 447 kts | 202° |
| 2026-04-23 06:26 | -29.76383 | 152.05856 | 40331 ft | 448 kts | 197° |
| 2026-04-23 06:26 | -29.82457 | 152.04237 | 40335 ft | 449 kts | 195° |
| 2026-04-23 06:27 | -29.88530 | 152.02663 | 40337 ft | 449 kts | 195° |
| 2026-04-23 06:27 | -29.94614 | 152.01076 | 40335 ft | 448 kts | 195° |
| 2026-04-23 06:28 | -30.00699 | 151.99487 | 40341 ft | 448 kts | 195° |
| 2026-04-23 06:28 | -30.06762 | 151.97899 | 40340 ft | 448 kts | 195° |
| 2026-04-23 06:29 | -30.12860 | 151.96300 | 40340 ft | 447 kts | 195° |
| 2026-04-23 06:29 | -30.18937 | 151.94704 | 40339 ft | 447 kts | 195° |
| 2026-04-23 06:30 | -30.24976 | 151.93115 | 40340 ft | 447 kts | 195° |
| 2026-04-23 06:30 | -30.31031 | 151.91402 | 40341 ft | 445 kts | 198° |
| 2026-04-23 06:31 | -30.36843 | 151.89075 | 40342 ft | 443 kts | 203° |
| 2026-04-23 06:31 | -30.42582 | 151.86417 | 40339 ft | 443 kts | 204° |
| 2026-04-23 06:32 | -30.48276 | 151.83758 | 40337 ft | 442 kts | 204° |
| 2026-04-23 06:32 | -30.54001 | 151.81088 | 40337 ft | 442 kts | 204° |
| 2026-04-23 06:33 | -30.58201 | 151.79129 | 40334 ft | 442 kts | 204° |
| 2026-04-23 06:33 | -30.63892 | 151.76471 | 40337 ft | 442 kts | 204° |
| 2026-04-23 06:34 | -30.69593 | 151.73804 | 40338 ft | 442 kts | 204° |
| 2026-04-23 06:34 | -30.75287 | 151.71138 | 40334 ft | 441 kts | 204° |
| 2026-04-23 06:35 | -30.80977 | 151.68471 | 40337 ft | 441 kts | 203° |
| 2026-04-23 06:35 | -30.86695 | 151.65787 | 40338 ft | 441 kts | 203° |
| 2026-04-23 06:36 | -30.92357 | 151.63126 | 40335 ft | 440 kts | 203° |
| 2026-04-23 06:36 | -30.98031 | 151.60457 | 40340 ft | 440 kts | 203° |
| 2026-04-23 06:37 | -31.03727 | 151.57771 | 40340 ft | 440 kts | 203° |
| 2026-04-23 06:37 | -31.09390 | 151.55101 | 40344 ft | 440 kts | 203° |
| 2026-04-23 06:38 | -31.12239 | 151.53755 | 40228 ft | 441 kts | 203° |
| 2026-04-23 06:38 | -31.15062 | 151.52420 | 39979 ft | 439 kts | 203° |
| 2026-04-23 06:38 | -31.17916 | 151.51071 | 39724 ft | 437 kts | 203° |
| 2026-04-23 06:38 | -31.20720 | 151.49744 | 39463 ft | 434 kts | 203° |
| 2026-04-23 06:39 | -31.23512 | 151.48422 | 39169 ft | 432 kts | 203° |
| 2026-04-23 06:39 | -31.26284 | 151.47108 | 38784 ft | 431 kts | 203° |
| 2026-04-23 06:39 | -31.29041 | 151.45802 | 38365 ft | 431 kts | 203° |
| 2026-04-23 06:39 | -31.31812 | 151.44487 | 37928 ft | 430 kts | 202° |
| 2026-04-23 06:40 | -31.34592 | 151.43169 | 37503 ft | 430 kts | 202° |
| 2026-04-23 06:40 | -31.37350 | 151.41858 | 37009 ft | 430 kts | 202° |
| 2026-04-23 06:40 | -31.40107 | 151.40565 | 36453 ft | 430 kts | 201° |
| 2026-04-23 06:40 | -31.42917 | 151.39305 | 36018 ft | 430 kts | 201° |
| 2026-04-23 06:41 | -31.45688 | 151.38077 | 35545 ft | 430 kts | 201° |
| 2026-04-23 06:41 | -31.48514 | 151.36822 | 35034 ft | 431 kts | 201° |
| 2026-04-23 06:41 | -31.51307 | 151.35580 | 34533 ft | 431 kts | 201° |
| 2026-04-23 06:41 | -31.54121 | 151.34326 | 33935 ft | 431 kts | 201° |
| 2026-04-23 06:42 | -31.56914 | 151.33078 | 33360 ft | 430 kts | 201° |
| 2026-04-23 06:42 | -31.59702 | 151.31831 | 32892 ft | 427 kts | 201° |
| 2026-04-23 06:42 | -31.62455 | 151.30598 | 32576 ft | 424 kts | 201° |
| 2026-04-23 06:42 | -31.65201 | 151.29367 | 32228 ft | 422 kts | 201° |
| 2026-04-23 06:43 | -31.67939 | 151.28140 | 31877 ft | 419 kts | 201° |
| 2026-04-23 06:43 | -31.70655 | 151.26921 | 31511 ft | 416 kts | 201° |
| 2026-04-23 06:43 | -31.73349 | 151.25711 | 31168 ft | 413 kts | 201° |
| 2026-04-23 06:43 | -31.75992 | 151.24524 | 30829 ft | 411 kts | 200° |
| 2026-04-23 06:44 | -31.78671 | 151.23320 | 30499 ft | 407 kts | 200° |
| 2026-04-23 06:44 | -31.81300 | 151.22137 | 30148 ft | 405 kts | 200° |
| 2026-04-23 06:44 | -31.83923 | 151.20956 | 29784 ft | 402 kts | 200° |
| 2026-04-23 06:44 | -31.86581 | 151.19992 | 29336 ft | 400 kts | 188° |
| 2026-04-23 06:45 | -31.89361 | 151.19691 | 28871 ft | 398 kts | 185° |
| 2026-04-23 06:45 | -31.92109 | 151.19421 | 28446 ft | 395 kts | 185° |
| 2026-04-23 06:45 | -31.94808 | 151.19141 | 28071 ft | 391 kts | 185° |
| 2026-04-23 06:45 | -31.97517 | 151.18851 | 27730 ft | 386 kts | 185° |
| 2026-04-23 06:46 | -32.00163 | 151.18561 | 27394 ft | 381 kts | 185° |
| 2026-04-23 06:46 | -32.02802 | 151.18268 | 27056 ft | 377 kts | 185° |
| 2026-04-23 06:46 | -32.05378 | 151.17979 | 26717 ft | 373 kts | 185° |
| 2026-04-23 06:46 | -32.07976 | 151.17688 | 26349 ft | 370 kts | 185° |
| 2026-04-23 06:47 | -32.10525 | 151.17400 | 25985 ft | 367 kts | 185° |
| 2026-04-23 06:47 | -32.13061 | 151.17113 | 25629 ft | 364 kts | 185° |
| 2026-04-23 06:47 | -32.15570 | 151.16827 | 25285 ft | 361 kts | 185° |
| 2026-04-23 06:47 | -32.18049 | 151.16545 | 24932 ft | 359 kts | 185° |
| 2026-04-23 06:48 | -32.20528 | 151.16263 | 24565 ft | 356 kts | 184° |
| 2026-04-23 06:48 | -32.22984 | 151.15984 | 24209 ft | 354 kts | 184° |
| 2026-04-23 06:48 | -32.25448 | 151.15704 | 23866 ft | 351 kts | 184° |
| 2026-04-23 06:48 | -32.27860 | 151.15430 | 23520 ft | 349 kts | 184° |
| 2026-04-23 06:49 | -32.30279 | 151.15155 | 23176 ft | 347 kts | 184° |
| 2026-04-23 06:49 | -32.32663 | 151.14882 | 22827 ft | 345 kts | 184° |
| 2026-04-23 06:49 | -32.35057 | 151.14607 | 22475 ft | 343 kts | 184° |
| 2026-04-23 06:49 | -32.37423 | 151.14337 | 22131 ft | 341 kts | 184° |
| 2026-04-23 06:50 | -32.39788 | 151.14066 | 21779 ft | 339 kts | 184° |
| 2026-04-23 06:50 | -32.42127 | 151.13798 | 21429 ft | 338 kts | 184° |
| 2026-04-23 06:50 | -32.44467 | 151.13530 | 21077 ft | 336 kts | 184° |
| 2026-04-23 06:50 | -32.46785 | 151.13264 | 20726 ft | 334 kts | 183° |
| 2026-04-23 06:51 | -32.49089 | 151.13002 | 20377 ft | 333 kts | 183° |
| 2026-04-23 06:51 | -32.51396 | 151.12736 | 20040 ft | 331 kts | 183° |
| 2026-04-23 06:51 | -32.53666 | 151.12477 | 19706 ft | 330 kts | 183° |
| 2026-04-23 06:51 | -32.55959 | 151.12215 | 19361 ft | 328 kts | 183° |
| 2026-04-23 06:52 | -32.58230 | 151.11954 | 19008 ft | 327 kts | 183° |
| 2026-04-23 06:52 | -32.60493 | 151.11693 | 18662 ft | 326 kts | 182° |
| 2026-04-23 06:52 | -32.62738 | 151.11435 | 18331 ft | 325 kts | 182° |
| 2026-04-23 06:52 | -32.64979 | 151.11177 | 18010 ft | 323 kts | 182° |
| 2026-04-23 06:53 | -32.67207 | 151.10922 | 17685 ft | 321 kts | 182° |
| 2026-04-23 06:53 | -32.69423 | 151.10667 | 17350 ft | 320 kts | 182° |
| 2026-04-23 06:53 | -32.71656 | 151.10413 | 17012 ft | 319 kts | 182° |
| 2026-04-23 06:53 | -32.73862 | 151.10159 | 16673 ft | 318 kts | 182° |
| 2026-04-23 06:54 | -32.76047 | 151.09907 | 16337 ft | 317 kts | 182° |
| 2026-04-23 06:54 | -32.78257 | 151.09653 | 15990 ft | 316 kts | 182° |
| 2026-04-23 06:54 | -32.80441 | 151.09401 | 15648 ft | 316 kts | 182° |
| 2026-04-23 06:54 | -32.82619 | 151.09151 | 15274 ft | 316 kts | 182° |
| 2026-04-23 06:55 | -32.84808 | 151.08897 | 14911 ft | 316 kts | 182° |
| 2026-04-23 06:55 | -32.87000 | 151.08644 | 14551 ft | 316 kts | 182° |
| 2026-04-23 06:55 | -32.89173 | 151.08392 | 14209 ft | 315 kts | 182° |
| 2026-04-23 06:55 | -32.91370 | 151.08139 | 13871 ft | 314 kts | 183° |
| 2026-04-23 06:56 | -32.93538 | 151.07889 | 13538 ft | 313 kts | 182° |
| 2026-04-23 06:56 | -32.95699 | 151.07637 | 13217 ft | 312 kts | 182° |
| 2026-04-23 06:56 | -32.97850 | 151.07388 | 12886 ft | 311 kts | 182° |
| 2026-04-23 06:56 | -32.99995 | 151.07140 | 12555 ft | 310 kts | 182° |
| 2026-04-23 06:57 | -33.02137 | 151.06892 | 12230 ft | 309 kts | 182° |
| 2026-04-23 06:57 | -33.04266 | 151.06644 | 11905 ft | 308 kts | 182° |
| 2026-04-23 06:57 | -33.06401 | 151.06396 | 11580 ft | 306 kts | 182° |
| 2026-04-23 06:57 | -33.08543 | 151.06148 | 11247 ft | 306 kts | 182° |
| 2026-04-23 06:58 | -33.10654 | 151.05904 | 10915 ft | 305 kts | 182° |
| 2026-04-23 06:58 | -33.12765 | 151.05659 | 10587 ft | 304 kts | 182° |
| 2026-04-23 06:58 | -33.14868 | 151.05415 | 10264 ft | 304 kts | 182° |
| 2026-04-23 06:58 | -33.16945 | 151.05174 | 10070 ft | 297 kts | 182° |
| 2026-04-23 06:59 | -33.18969 | 151.04936 | 10041 ft | 286 kts | 182° |
| 2026-04-23 06:59 | -33.20937 | 151.04706 | 10005 ft | 275 kts | 182° |
| 2026-04-23 06:59 | -33.22802 | 151.04530 | 9950 ft | 265 kts | 178° |
| 2026-04-23 06:59 | -33.24634 | 151.04599 | 9668 ft | 263 kts | 171° |
| 2026-04-23 07:00 | -33.26443 | 151.04897 | 9390 ft | 262 kts | 168° |
| 2026-04-23 07:00 | -33.28239 | 151.05244 | 9134 ft | 262 kts | 168° |
| 2026-04-23 07:00 | -33.30024 | 151.05595 | 8962 ft | 258 kts | 168° |
| 2026-04-23 07:00 | -33.31785 | 151.05937 | 8786 ft | 254 kts | 168° |
| 2026-04-23 07:01 | -33.33535 | 151.06274 | 8613 ft | 250 kts | 168° |
| 2026-04-23 07:01 | -33.35229 | 151.06599 | 8376 ft | 247 kts | 168° |
| 2026-04-23 07:01 | -33.36932 | 151.06831 | 8102 ft | 244 kts | 173° |
| 2026-04-23 07:01 | -33.38624 | 151.06903 | 7889 ft | 240 kts | 176° |
| 2026-04-23 07:02 | -33.40277 | 151.06921 | 7735 ft | 237 kts | 175° |
| 2026-04-23 07:02 | -33.41899 | 151.07097 | 7576 ft | 232 kts | 169° |
| 2026-04-23 07:02 | -33.43493 | 151.07370 | 7427 ft | 228 kts | 168° |
| 2026-04-23 07:02 | -33.45055 | 151.07646 | 7276 ft | 225 kts | 169° |
| 2026-04-23 07:03 | -33.46606 | 151.07913 | 7086 ft | 223 kts | 169° |
| 2026-04-23 07:03 | -33.48134 | 151.08170 | 6874 ft | 223 kts | 169° |
| 2026-04-23 07:03 | -33.49678 | 151.08421 | 6665 ft | 223 kts | 169° |
| 2026-04-23 07:03 | -33.51226 | 151.08673 | 6458 ft | 223 kts | 169° |
| 2026-04-23 07:04 | -33.52749 | 151.08919 | 6254 ft | 222 kts | 169° |
| 2026-04-23 07:04 | -33.54290 | 151.09166 | 6042 ft | 221 kts | 169° |
| 2026-04-23 07:04 | -33.55821 | 151.09410 | 5800 ft | 220 kts | 169° |
| 2026-04-23 07:04 | -33.57342 | 151.09654 | 5544 ft | 220 kts | 169° |
| 2026-04-23 07:05 | -33.58857 | 151.09897 | 5279 ft | 219 kts | 169° |
| 2026-04-23 07:05 | -33.60357 | 151.10136 | 5022 ft | 218 kts | 169° |
| 2026-04-23 07:05 | -33.61858 | 151.10376 | 4759 ft | 217 kts | 170° |
| 2026-04-23 07:05 | -33.63348 | 151.10616 | 4498 ft | 216 kts | 169° |
| 2026-04-23 07:06 | -33.64829 | 151.10852 | 4242 ft | 215 kts | 169° |
| 2026-04-23 07:06 | -33.66330 | 151.11089 | 4044 ft | 215 kts | 173° |
| 2026-04-23 07:06 | -33.67813 | 151.11083 | 3962 ft | 213 kts | 177° |
| 2026-04-23 07:06 | -33.69305 | 151.11160 | 3957 ft | 214 kts | 171° |
| 2026-04-23 07:07 | -33.70763 | 151.11418 | 3962 ft | 210 kts | 167° |
| 2026-04-23 07:07 | -33.72185 | 151.11754 | 3960 ft | 203 kts | 166° |
| 2026-04-23 07:07 | -33.73513 | 151.12093 | 3827 ft | 189 kts | 165° |
| 2026-04-23 07:07 | -33.74767 | 151.12422 | 3578 ft | 181 kts | 165° |
| 2026-04-23 07:08 | -33.75977 | 151.12743 | 3336 ft | 175 kts | 165° |
| 2026-04-23 07:08 | -33.77151 | 151.13052 | 3116 ft | 169 kts | 165° |
| 2026-04-23 07:08 | -33.78284 | 151.13350 | 2900 ft | 163 kts | 165° |
| 2026-04-23 07:08 | -33.79368 | 151.13632 | 2686 ft | 156 kts | 165° |
| 2026-04-23 07:09 | -33.80406 | 151.13902 | 2482 ft | 150 kts | 165° |
| 2026-04-23 07:09 | -33.81408 | 151.14163 | 2286 ft | 142 kts | 164° |
| 2026-04-23 07:09 | -33.82356 | 151.14409 | 2099 ft | 136 kts | 165° |
| 2026-04-23 07:09 | -33.83288 | 151.14651 | 1935 ft | 137 kts | 165° |
| 2026-04-23 07:10 | -33.84227 | 151.14897 | 1761 ft | 137 kts | 165° |
| 2026-04-23 07:10 | -33.85164 | 151.15140 | 1585 ft | 137 kts | 165° |
| 2026-04-23 07:10 | -33.86092 | 151.15381 | 1415 ft | 137 kts | 165° |
| 2026-04-23 07:10 | -33.87030 | 151.15624 | 1239 ft | 136 kts | 165° |
| 2026-04-23 07:11 | -33.87960 | 151.15869 | 1048 ft | 136 kts | 165° |
| 2026-04-23 07:11 | -33.88873 | 151.16109 | 865 ft | 135 kts | 166° |
| 2026-04-23 07:11 | -33.89794 | 151.16350 | 685 ft | 135 kts | 166° |
| 2026-04-23 07:12 | -33.91627 | 151.16817 | 330 ft | 134 kts | 166° |
| 2026-04-23 07:12 | -33.92546 | 151.17056 | 156 ft | 133 kts | 167° |
| 2026-04-23 07:12 | -33.93446 | 151.17290 | 38 ft | 127 kts | 167° |
| 2026-04-23 07:12 | -33.94172 | 151.17479 | 37 ft | 81 kts | 168° |
| 2026-04-23 07:13 | -33.94577 | 151.17583 | 37 ft | 50 kts | 168° |
| 2026-04-23 07:13 | -33.94891 | 151.17656 | 37 ft | 42 kts | 167° |
| 2026-04-23 07:13 | -33.95099 | 151.17719 | 37 ft | 5 kts | 165° |
| 2026-04-23 07:13 | -33.95133 | 151.17741 | 37 ft | 6 kts | 136° |
| 2026-04-23 07:14 | -33.95152 | 151.17804 | 37 ft | 9 kts | 88° |
| 2026-04-23 07:14 | -33.95139 | 151.17886 | 37 ft | 9 kts | 76° |
| 2026-04-23 07:14 | -33.95090 | 151.17935 | 37 ft | 10 kts | 7° |
| 2026-04-23 07:14 | -33.95012 | 151.17921 | 37 ft | 12 kts | 348° |
| 2026-04-23 07:15 | -33.94923 | 151.17899 | 37 ft | 13 kts | 348° |
| 2026-04-23 07:15 | -33.94825 | 151.17874 | 37 ft | 14 kts | 347° |
| 2026-04-23 07:15 | -33.94721 | 151.17845 | 37 ft | 15 kts | 348° |
| 2026-04-23 07:15 | -33.94610 | 151.17818 | 37 ft | 16 kts | 347° |
| 2026-04-23 07:16 | -33.94495 | 151.17784 | 37 ft | 17 kts | 346° |
| 2026-04-23 07:16 | -33.94376 | 151.17749 | 36 ft | 17 kts | 346° |
| 2026-04-23 07:16 | -33.94254 | 151.17712 | 36 ft | 18 kts | 346° |
| 2026-04-23 07:16 | -33.94129 | 151.17673 | 37 ft | 18 kts | 346° |
| 2026-04-23 07:17 | -33.94000 | 151.17638 | 37 ft | 19 kts | 347° |
| 2026-04-23 07:17 | -33.93868 | 151.17603 | 37 ft | 19 kts | 348° |
| 2026-04-23 07:17 | -33.93735 | 151.17569 | 37 ft | 19 kts | 348° |
| 2026-04-23 07:17 | -33.93601 | 151.17534 | 37 ft | 19 kts | 347° |
| 2026-04-23 07:18 | -33.93464 | 151.17509 | 37 ft | 19 kts | 358° |
| 2026-04-23 07:18 | -33.93327 | 151.17491 | 37 ft | 20 kts | 348° |
| 2026-04-23 07:18 | -33.93190 | 151.17456 | 37 ft | 20 kts | 348° |
| 2026-04-23 07:18 | -33.93063 | 151.17423 | 37 ft | 14 kts | 346° |
| 2026-04-23 07:19 | -33.92993 | 151.17436 | 37 ft | 10 kts | 63° |
| 2026-04-23 07:19 | -33.92995 | 151.17526 | 37 ft | 10 kts | 102° |
| 2026-04-23 07:19 | -33.93008 | 151.17589 | 37 ft | 5 kts | 115° |
| 2026-04-23 07:19 | -33.93051 | 151.17615 | 37 ft | 8 kts | 168° |
| 2026-04-23 07:20 | -33.93088 | 151.17624 | 37 ft | 2 kts | 169° |
| 2026-04-23 07:20 | -33.93090 | 151.17624 | 37 ft | 0 kts | 169° |